Time;durP1;ratioP1;P1;durP2;ratioP2;P2;SDS_P1;SDS_P2;PMS_P1;PMS_P2;Temp;Humidity;BMP_temperature;BMP_pressure;BME280_temperature;BME280_humidity;BME280_pressure;Samples;Min_cycle;Max_cycle;Signal;HPM_P1;HPM_P2
2022/02/21 00:00:55;;;;;;;;;;;9.90;73.60;;;;;;5214007;28;20641;-78
2022/02/21 00:03:30;;;;;;;1.35;0.63;;;9.90;73.70;;;;;;5235353;28;23644;-78
2022/02/21 00:06:02;;;;;;;2.60;0.73;;;9.90;73.70;;;;;;5187973;28;20044;-78
2022/02/21 00:08:36;;;;;;;;;;;9.80;74.60;;;;;;5203466;28;20068;-77
2022/02/21 00:11:08;;;;;;;4.68;0.70;;;9.90;73.50;;;;;;5208639;28;19936;-78
2022/02/21 00:13:41;;;;;;;2.15;0.52;;;9.80;73.80;;;;;;5213347;28;20048;-77
2022/02/21 00:16:13;;;;;;;0.70;0.60;;;9.80;74.10;;;;;;5221452;28;20067;-77
2022/02/21 00:18:45;;;;;;;0.68;0.60;;;9.80;73.90;;;;;;5216920;28;20060;-77
2022/02/21 00:21:18;;;;;;;1.58;0.80;;;9.80;73.90;;;;;;5206351;28;20053;-78
2022/02/21 00:23:50;;;;;;;1.85;0.93;;;9.80;73.50;;;;;;5233626;28;20075;-77
2022/02/21 00:26:23;;;;;;;1.70;0.80;;;9.80;73.90;;;;;;5210357;28;20048;-77
2022/02/21 00:28:56;;;;;;;1.73;0.70;;;9.80;74.00;;;;;;5228340;28;20033;-76
2022/02/21 00:31:30;;;;;;;0.93;0.63;;;9.80;74.50;;;;;;5200409;28;20103;-77
2022/02/21 00:34:03;;;;;;;2.75;0.70;;;9.80;74.70;;;;;;5220359;28;20377;-77
2022/02/21 00:36:36;;;;;;;0.52;0.52;;;9.80;74.50;;;;;;5213357;28;20508;-76
2022/02/21 00:39:08;;;;;;;1.20;0.65;;;9.80;74.60;;;;;;5220839;28;20072;-77
2022/02/21 00:41:41;;;;;;;0.85;0.70;;;9.80;74.70;;;;;;5226838;28;20056;-77
2022/02/21 00:44:13;;;;;;;0.80;0.60;;;9.80;75.00;;;;;;5221873;28;20040;-77
2022/02/21 00:46:45;;;;;;;0.60;0.55;;;9.80;75.00;;;;;;5219207;28;20064;-76
2022/02/21 00:49:18;;;;;;;1.08;0.52;;;9.80;75.00;;;;;;5215453;28;20056;-77
2022/02/21 00:51:50;;;;;;;1.35;0.50;;;9.80;73.70;;;;;;5191015;28;20459;-78
2022/02/21 00:54:23;;;;;;;3.03;0.50;;;9.80;73.30;;;;;;5220617;28;20045;-80
2022/02/21 00:56:56;;;;;;;1.15;0.55;;;9.80;73.90;;;;;;5215182;28;20040;-77
2022/02/21 00:59:28;;;;;;;0.75;0.60;;;9.80;74.20;;;;;;5233846;28;20068;-78
2022/02/21 01:02:00;;;;;;;0.77;0.40;;;9.80;73.30;;;;;;5213241;28;20049;-76
2022/02/21 01:04:33;;;;;;;2.22;0.70;;;9.80;73.60;;;;;;5224391;28;20067;-77
2022/02/21 01:07:07;;;;;;;0.63;0.50;;;9.80;73.50;;;;;;5219817;28;20068;-75
2022/02/21 01:09:39;;;;;;;0.40;0.40;;;9.80;73.40;;;;;;5228793;28;20487;-77
2022/02/21 01:12:12;;;;;;;0.60;0.57;;;9.90;74.00;;;;;;5224457;28;20041;-78
2022/02/21 01:14:44;;;;;;;1.27;0.60;;;9.90;73.30;;;;;;5218016;28;20068;-76
2022/02/21 01:17:18;;;;;;;0.88;0.63;;;9.80;73.80;;;;;;5219641;28;20041;-78
2022/02/21 01:19:51;;;;;;;0.70;0.60;;;9.80;72.80;;;;;;5222813;28;20041;-76
2022/02/21 01:22:24;;;;;;;0.90;0.63;;;9.90;73.20;;;;;;5223992;28;20550;-79
2022/02/21 01:24:56;;;;;;;1.02;0.80;;;9.90;72.90;;;;;;5226508;28;21156;-77
2022/02/21 01:27:29;;;;;;;1.45;0.60;;;9.90;72.80;;;;;;5221641;28;20045;-78
2022/02/21 01:30:05;;;;;;;2.83;0.60;;;9.90;72.90;;;;;;5237438;28;20059;-78
2022/02/21 01:32:38;;;;;;;1.55;0.60;;;9.50;71.10;;;;;;5227405;28;20041;-77
2022/02/21 01:35:11;;;;;;;0.70;0.65;;;10.00;71.80;;;;;;5224767;28;20408;-78
2022/02/21 01:37:43;;;;;;;1.05;0.55;;;10.00;71.60;;;;;;5220399;28;20044;-79
2022/02/21 01:40:16;;;;;;;4.03;0.80;;;10.00;70.70;;;;;;5204594;28;20492;-77
2022/02/21 01:42:48;;;;;;;2.10;0.70;;;10.00;70.80;;;;;;5215570;28;20529;-78
2022/02/21 01:45:21;;;;;;;3.47;0.88;;;10.10;70.70;;;;;;5221586;28;20075;-75
2022/02/21 01:47:53;;;;;;;1.95;0.85;;;10.10;71.20;;;;;;5224948;28;20452;-76
2022/02/21 01:50:25;;;;;;;1.95;0.73;;;10.10;70.70;;;;;;5217483;28;20053;-79
2022/02/21 01:53:01;;;;;;;0.85;0.68;;;10.10;70.60;;;;;;5219926;28;20396;-78
2022/02/21 01:55:33;;;;;;;4.95;1.02;;;10.00;70.40;;;;;;5218307;28;20471;-78
2022/02/21 01:58:06;;;;;;;4.05;0.73;;;10.10;69.90;;;;;;5215826;28;20519;-79
2022/02/21 02:00:39;;;;;;;5.43;1.23;;;10.10;70.30;;;;;;5215091;28;21434;-80
2022/02/21 02:03:11;;;;;;;1.85;0.50;;;10.10;69.90;;;;;;5220606;28;20048;-76
2022/02/21 02:05:44;;;;;;;2.15;0.90;;;10.50;69.60;;;;;;5214608;28;20041;-79
2022/02/21 02:08:16;;;;;;;4.13;0.90;;;10.10;69.70;;;;;;5208047;28;20056;-78
2022/02/21 02:10:49;;;;;;;1.35;0.70;;;10.10;70.50;;;;;;5213334;28;20056;-79
2022/02/21 02:13:21;;;;;;;1.63;0.70;;;10.10;70.50;;;;;;5201838;28;20048;-78
2022/02/21 02:15:54;;;;;;;1.88;0.70;;;10.10;71.40;;;;;;5223476;28;20055;-78
2022/02/21 02:18:27;;;;;;;4.80;1.20;;;10.10;70.30;;;;;;5216689;28;20037;-80
2022/02/21 02:20:59;;;;;;;2.63;1.00;;;10.10;71.00;;;;;;5226645;28;20264;-79
2022/02/21 02:23:33;;;;;;;3.45;0.70;;;10.10;70.30;;;;;;5207778;28;21022;-76
2022/02/21 02:26:05;;;;;;;1.85;0.85;;;10.10;70.50;;;;;;5214761;28;20052;-78
2022/02/21 02:28:38;;;;;;;2.05;0.63;;;10.10;70.70;;;;;;5225973;28;20586;-77
2022/02/21 02:31:10;;;;;;;2.40;0.82;;;10.10;70.40;;;;;;5212919;28;20049;-78
2022/02/21 02:33:43;;;;;;;0.77;0.70;;;10.10;69.90;;;;;;5207826;28;20048;-79
2022/02/21 02:36:16;;;;;;;1.05;0.77;;;10.10;70.40;;;;;;5216077;28;20040;-81
2022/02/21 02:38:48;;;;;;;0.82;0.50;;;10.10;69.60;;;;;;5216764;28;20048;-77
2022/02/21 02:41:20;;;;;;;1.00;0.70;;;10.10;69.00;;;;;;5194193;28;20082;-76
2022/02/21 02:43:53;;;;;;;1.95;0.60;;;10.10;68.60;;;;;;5221381;23;20087;-32
2022/02/21 02:46:25;;;;;;;1.77;0.50;;;10.20;69.30;;;;;;5182844;28;20059;-33
2022/02/21 02:48:58;;;;;;;4.22;0.95;;;10.20;69.20;;;;;;5206571;28;20036;-33
2022/02/21 02:51:30;;;;;;;1.02;0.75;;;10.20;69.30;;;;;;5204362;28;20045;-32
2022/02/21 02:54:06;;;;;;;1.42;0.70;;;10.20;69.30;;;;;;5197044;28;20056;-32
2022/02/21 02:56:40;;;;;;;3.22;0.68;;;10.20;69.30;;;;;;5187917;28;20045;-32
2022/02/21 02:59:13;;;;;;;2.53;0.60;;;10.20;69.10;;;;;;5210314;23;21055;-40
2022/02/21 03:01:46;;;;;;;2.38;0.65;;;10.60;68.10;;;;;;5206957;28;20056;-41
2022/02/21 03:04:18;;;;;;;1.02;0.52;;;10.20;69.00;;;;;;5207583;28;20052;-41
2022/02/21 03:06:51;;;;;;;1.92;1.13;;;10.30;69.20;;;;;;5186126;28;20087;-39
2022/02/21 03:09:24;;;;;;;0.85;0.50;;;10.30;68.80;;;;;;5208601;28;20057;-40
2022/02/21 03:11:57;;;;;;;1.00;0.60;;;10.30;69.00;;;;;;5215838;28;20033;-41
2022/02/21 03:14:30;;;;;;;1.83;0.63;;;10.30;68.60;;;;;;5195469;28;20037;-42
2022/02/21 03:17:02;;;;;;;1.05;0.80;;;10.30;68.50;;;;;;5205854;28;20389;-40
2022/02/21 03:19:35;;;;;;;1.87;0.70;;;10.30;68.30;;;;;;5208143;28;20052;-39
2022/02/21 03:22:08;;;;;;;1.90;0.77;;;10.30;67.90;;;;;;5215392;28;20056;-41
2022/02/21 03:24:40;;;;;;;3.05;0.77;;;10.30;67.50;;;;;;5213751;28;20726;-40
2022/02/21 03:27:13;;;;;;;2.03;0.80;;;10.30;67.50;;;;;;5213144;28;20058;-40
2022/02/21 03:29:45;;;;;;;4.10;1.00;;;10.30;67.80;;;;;;5212855;28;20424;-40
2022/02/21 03:32:18;;;;;;;1.98;0.77;;;10.30;67.40;;;;;;5209282;28;20048;-40
2022/02/21 03:34:50;;;;;;;1.08;0.60;;;10.30;67.70;;;;;;5204798;28;20359;-41
2022/02/21 03:37:22;;;;;;;0.52;0.52;;;10.30;67.80;;;;;;5182979;28;20045;-40
2022/02/21 03:39:55;;;;;;;1.00;0.60;;;10.30;67.80;;;;;;5210875;28;20499;-42
2022/02/21 03:42:27;;;;;;;2.97;1.70;;;10.30;67.50;;;;;;5183376;28;20063;-40
2022/02/21 03:45:01;;;;;;;0.95;0.50;;;10.30;68.70;;;;;;5205609;28;20449;-40
2022/02/21 03:47:34;;;;;;;1.80;0.80;;;10.30;68.10;;;;;;5195362;28;20041;-40
2022/02/21 03:50:07;;;;;;;1.27;0.70;;;10.30;67.70;;;;;;5213484;28;20056;-41
2022/02/21 03:52:39;;;;;;;1.48;0.77;;;10.30;67.80;;;;;;5195919;28;20072;-36
2022/02/21 03:55:13;;;;;;;0.82;0.70;;;10.30;67.30;;;;;;5200565;28;20033;-37
2022/02/21 03:57:46;;;;;;;;;;;10.30;67.50;;;;;;5204490;28;20053;-36
2022/02/21 04:00:21;;;;;;;1.55;0.70;;;10.20;68.50;;;;;;5216843;28;19925;-38
2022/02/21 04:02:53;;;;;;;1.10;1.00;;;10.20;67.80;;;;;;5214487;28;20075;-38
2022/02/21 04:05:26;;;;;;;1.30;0.85;;;10.20;67.70;;;;;;5214698;28;20048;-38
2022/02/21 04:07:58;;;;;;;1.30;0.70;;;10.30;67.50;;;;;;5217612;28;20126;-37
2022/02/21 04:10:31;;;;;;;2.75;1.00;;;10.20;67.40;;;;;;5211485;28;20041;-37
2022/02/21 04:13:04;;;;;;;4.82;0.80;;;10.20;67.70;;;;;;5186157;28;20436;-36
2022/02/21 04:15:36;;;;;;;1.50;1.08;;;10.30;68.10;;;;;;5212631;28;20047;-37
2022/02/21 04:18:08;;;;;;;4.13;0.80;;;10.20;68.40;;;;;;5211165;28;20044;-38
2022/02/21 04:20:41;;;;;;;5.28;1.15;;;10.20;68.20;;;;;;5220635;28;20048;-38
2022/02/21 04:23:13;;;;;;;0.73;0.68;;;10.20;68.50;;;;;;5192276;28;20057;-36
2022/02/21 04:25:46;;;;;;;3.97;1.20;;;10.20;68.70;;;;;;5208855;28;20049;-38
2022/02/21 04:28:19;;;;;;;3.70;0.63;;;10.20;69.00;;;;;;5211232;28;20045;-38
2022/02/21 04:30:51;;;;;;;1.25;0.70;;;10.20;69.00;;;;;;5198009;28;20317;-36
2022/02/21 04:33:24;;;;;;;2.15;0.73;;;10.20;68.90;;;;;;5199458;28;20060;-38
2022/02/21 04:35:56;;;;;;;1.08;0.90;;;10.20;68.90;;;;;;5212122;28;22751;-37
2022/02/21 04:38:29;;;;;;;0.47;0.47;;;10.20;69.30;;;;;;5201308;28;20036;-41
2022/02/21 04:41:01;;;;;;;1.48;0.95;;;10.20;69.50;;;;;;5204581;28;20059;-39
2022/02/21 04:43:34;;;;;;;0.60;0.60;;;10.10;69.70;;;;;;5207221;28;20056;-40
2022/02/21 04:46:07;;;;;;;1.80;1.05;;;10.10;69.80;;;;;;5170837;28;20052;-42
2022/02/21 04:48:40;;;;;;;1.20;0.70;;;10.10;70.00;;;;;;5208380;28;20055;-41
2022/02/21 04:51:12;;;;;;;1.08;0.60;;;10.10;70.30;;;;;;5190690;28;20052;-40
2022/02/21 04:53:45;;;;;;;0.85;0.50;;;10.10;70.80;;;;;;5210859;28;20436;-39
2022/02/21 04:56:18;;;;;;;1.02;0.47;;;10.00;70.90;;;;;;5207156;28;20079;-38
2022/02/21 04:58:51;;;;;;;0.60;0.60;;;10.00;70.80;;;;;;5186992;28;20049;-38
2022/02/21 05:01:24;;;;;;;;;;;10.00;71.20;;;;;;5194075;28;20045;-36
2022/02/21 05:03:56;;;;;;;1.25;0.60;;;9.90;71.20;;;;;;5198049;28;19921;-37
2022/02/21 05:06:29;;;;;;;2.15;0.60;;;9.90;71.60;;;;;;5207481;28;20236;-38
2022/02/21 05:09:01;;;;;;;2.92;0.68;;;9.90;71.60;;;;;;5199859;28;20575;-37
2022/02/21 05:11:34;;;;;;;0.70;0.60;;;9.90;71.90;;;;;;5184788;28;20091;-38
2022/02/21 05:14:06;;;;;;;0.73;0.60;;;9.80;71.80;;;;;;5203424;28;20140;-39
2022/02/21 05:16:39;;;;;;;0.73;0.50;;;9.90;72.20;;;;;;5205787;28;20068;-36
2022/02/21 05:19:11;;;;;;;2.35;0.52;;;9.80;72.70;;;;;;5208181;28;20902;-38
2022/02/21 05:21:44;;;;;;;2.97;0.70;;;9.80;72.60;;;;;;5204998;28;20044;-38
2022/02/21 05:24:16;;;;;;;1.48;0.50;;;9.70;73.00;;;;;;5214521;28;20044;-38
2022/02/21 05:26:49;;;;;;;1.40;0.52;;;9.70;73.20;;;;;;5205157;28;20056;-38
2022/02/21 05:29:22;;;;;;;0.80;0.50;;;9.70;73.70;;;;;;5218576;28;20049;-38
2022/02/21 05:31:54;;;;;;;1.05;0.60;;;9.70;73.80;;;;;;5207762;28;20129;-37
2022/02/21 05:34:27;;;;;;;1.17;0.63;;;9.60;73.90;;;;;;5216123;28;20500;-38
2022/02/21 05:36:59;;;;;;;0.67;0.63;;;9.60;74.40;;;;;;5203796;28;20162;-36
2022/02/21 05:39:32;;;;;;;2.00;0.63;;;9.60;74.10;;;;;;5205305;28;20482;-37
2022/02/21 05:42:05;;;;;;;1.00;0.40;;;9.50;74.10;;;;;;5202749;28;20044;-39
2022/02/21 05:44:37;;;;;;;0.93;0.70;;;9.60;74.50;;;;;;5204393;28;20393;-37
2022/02/21 05:47:11;;;;;;;1.80;0.55;;;9.60;74.40;;;;;;5214337;28;21143;-36
2022/02/21 05:49:44;;;;;;;0.47;0.47;;;9.60;74.30;;;;;;5208730;28;20057;-38
2022/02/21 05:52:17;;;;;;;0.63;0.52;;;9.60;74.60;;;;;;5178363;28;22101;-39
2022/02/21 05:54:49;;;;;;;2.22;0.70;;;9.60;74.70;;;;;;5195192;28;20052;-36
2022/02/21 05:57:22;;;;;;;0.60;0.60;;;9.60;74.40;;;;;;5190465;28;20045;-43
2022/02/21 05:59:56;;;;;;;1.33;0.52;;;9.60;74.70;;;;;;5193266;28;20267;-39
2022/02/21 06:02:28;;;;;;;1.30;0.73;;;9.60;75.20;;;;;;5199561;28;20340;-40
2022/02/21 06:05:01;;;;;;;0.73;0.57;;;9.60;74.70;;;;;;5202438;28;20059;-40
2022/02/21 06:07:33;;;;;;;0.73;0.40;;;9.60;74.60;;;;;;5201378;28;20297;-41
2022/02/21 06:10:06;;;;;;;2.15;0.70;;;9.60;75.30;;;;;;5205919;28;20053;-40
2022/02/21 06:12:38;;;;;;;0.40;0.40;;;9.60;75.40;;;;;;5193078;28;20059;-39
2022/02/21 06:15:10;;;;;;;2.33;0.60;;;9.00;75.90;;;;;;5195128;28;20424;-38
2022/02/21 06:17:43;;;;;;;1.65;0.60;;;8.10;78.60;;;;;;5203318;28;20460;-40
2022/02/21 06:20:15;;;;;;;3.45;1.08;;;7.30;81.30;;;;;;5194886;28;20046;-38
2022/02/21 06:22:48;;;;;;;0.82;0.63;;;6.60;83.50;;;;;;5195409;28;20044;-39
2022/02/21 06:25:20;;;;;;;1.63;0.90;;;5.90;86.00;;;;;;5201560;28;20044;-41
2022/02/21 06:27:53;;;;;;;1.60;0.90;;;5.40;87.70;;;;;;5204544;28;20536;-39
2022/02/21 06:30:25;;;;;;;0.82;0.80;;;5.10;88.90;;;;;;5197744;28;20060;-38
2022/02/21 06:32:58;;;;;;;1.92;1.10;;;4.70;89.90;;;;;;5214489;28;20041;-38
2022/02/21 06:35:30;;;;;;;1.17;0.65;;;4.50;90.60;;;;;;5219998;28;20444;-37
2022/02/21 06:38:04;;;;;;;1.35;0.93;;;5.00;92.00;;;;;;5222742;28;20048;-38
2022/02/21 06:40:37;;;;;;;2.72;1.40;;;4.20;91.50;;;;;;5222965;28;20411;-37
2022/02/21 06:43:10;;;;;;;3.95;1.60;;;4.10;91.90;;;;;;5207508;28;20060;-38
2022/02/21 06:45:43;;;;;;;3.30;1.02;;;3.90;92.50;;;;;;5223335;28;20049;-38
2022/02/21 06:48:16;;;;;;;2.13;1.00;;;3.90;93.60;;;;;;5220466;28;20052;-38
2022/02/21 06:50:49;;;;;;;1.95;1.30;;;3.90;94.80;;;;;;5219609;28;20053;-38
2022/02/21 06:53:21;;;;;;;3.88;1.20;;;3.90;95.70;;;;;;5187374;28;20053;-38
2022/02/21 06:55:54;;;;;;;2.78;1.10;;;3.80;97.00;;;;;;5208530;28;20053;-38
2022/02/21 06:58:27;;;;;;;2.30;1.30;;;3.90;98.50;;;;;;5222090;28;20056;-38
2022/02/21 07:00:59;;;;;;;1.92;1.23;;;3.50;99.90;;;;;;5220666;28;20052;-38
2022/02/21 07:03:32;;;;;;;3.95;1.55;;;3.90;99.90;;;;;;5220342;28;20051;-38
2022/02/21 07:06:04;;;;;;;4.30;1.17;;;4.10;99.90;;;;;;5221363;28;20049;-43
2022/02/21 07:08:37;;;;;;;2.08;1.10;;;4.30;99.90;;;;;;5223087;28;20067;-39
2022/02/21 07:11:09;;;;;;;1.92;1.40;;;4.30;99.90;;;;;;5221995;28;20053;-38
2022/02/21 07:13:42;;;;;;;1.90;1.20;;;4.50;99.90;;;;;;5227957;28;20040;-38
2022/02/21 07:16:14;;;;;;;2.25;1.30;;;4.60;99.90;;;;;;5226881;28;20049;-38
2022/02/21 07:18:47;;;;;;;4.40;1.38;;;4.60;99.90;;;;;;5225825;28;20049;-38
2022/02/21 07:21:19;;;;;;;4.40;1.10;;;4.70;99.90;;;;;;5225431;28;20064;-38
2022/02/21 07:23:52;;;;;;;3.15;1.30;;;4.70;99.90;;;;;;5226653;28;20055;-37
2022/02/21 07:26:25;;;;;;;2.22;1.05;;;4.80;99.90;;;;;;5224645;28;20053;-37
2022/02/21 07:28:57;;;;;;;2.95;1.23;;;5.90;99.90;;;;;;5226105;28;20049;-37
2022/02/21 07:31:30;;;;;;;2.67;1.08;;;4.80;99.90;;;;;;5220315;28;20048;-37
2022/02/21 07:34:03;;;;;;;1.25;0.98;;;4.90;99.90;;;;;;5222944;28;20121;-37
2022/02/21 07:36:36;;;;;;;1.95;1.00;;;4.90;99.90;;;;;;5202800;28;20045;-37
2022/02/21 07:39:08;;;;;;;6.03;1.52;;;4.90;99.90;;;;;;5226179;28;20049;-38
2022/02/21 07:41:40;;;;;;;3.25;1.65;;;4.90;99.90;;;;;;5228848;28;20068;-38
2022/02/21 07:44:13;;;;;;;4.40;1.33;;;4.90;99.90;;;;;;5224720;28;20049;-38
2022/02/21 07:46:46;;;;;;;1.77;1.20;;;4.90;99.90;;;;;;5219191;28;20539;-38
2022/02/21 07:49:19;;;;;;;3.08;1.15;;;5.00;99.90;;;;;;5224238;28;20292;-38
2022/02/21 07:51:52;;;;;;;2.95;1.52;;;5.00;99.90;;;;;;5222072;28;20500;-38
2022/02/21 07:54:25;;;;;;;3.92;1.15;;;5.00;99.90;;;;;;5221653;28;20048;-38
2022/02/21 07:57:13;;;;;;;4.05;1.40;;;5.60;99.90;;;;;;5206515;28;20055;-38
2022/02/21 07:59:45;;;;;;;5.90;1.42;;;3.60;99.90;;;;;;5205252;28;20049;-38
2022/02/21 08:02:18;;;;;;;5.25;1.35;;;5.10;99.90;;;;;;5201886;28;20231;-38
2022/02/21 08:04:50;;;;;;;5.95;1.50;;;5.10;99.90;;;;;;5203847;28;20053;-38
2022/02/21 08:07:23;;;;;;;3.15;1.10;;;3.50;99.90;;;;;;5205092;28;20493;-38
2022/02/21 08:09:55;;;;;;;2.70;0.93;;;5.10;99.90;;;;;;5191497;28;20072;-38
2022/02/21 08:12:31;;;;;;;3.92;1.50;;;5.10;99.90;;;;;;5201124;28;20045;-38
2022/02/21 08:15:05;;;;;;;2.70;1.40;;;4.90;99.90;;;;;;5200545;28;20041;-38
2022/02/21 08:17:47;;;;;;;2.72;1.10;;;5.20;99.90;;;;;;5203509;28;20239;-38
2022/02/21 08:20:22;;;;;;;5.63;1.48;;;5.30;99.90;;;;;;5206642;28;20075;-38
2022/02/21 08:22:55;;;;;;;1.92;1.13;;;5.40;99.90;;;;;;5202492;28;20053;-38
2022/02/21 08:25:30;;;;;;;2.78;1.60;;;5.30;99.90;;;;;;5200780;28;20057;-38
2022/02/21 08:28:03;;;;;;;2.92;1.38;;;5.40;99.90;;;;;;5204539;28;20554;-38
2022/02/21 08:30:35;;;;;;;5.43;2.27;;;5.50;99.90;;;;;;5185278;28;20516;-38
2022/02/21 08:33:07;;;;;;;1.88;1.40;;;5.50;99.90;;;;;;5202770;28;20045;-38
2022/02/21 08:35:40;;;;;;;5.30;1.25;;;5.50;99.90;;;;;;5204041;28;20045;-38
2022/02/21 08:38:12;;;;;;;2.05;1.65;;;5.50;99.90;;;;;;5173081;28;20278;-38
2022/02/21 08:40:45;;;;;;;4.63;1.20;;;5.50;99.80;;;;;;5211389;28;20448;-38
2022/02/21 08:43:18;;;;;;;4.93;1.30;;;5.50;99.80;;;;;;5205350;28;20042;-38
2022/02/21 08:45:56;;;;;;;4.90;1.80;;;6.30;99.90;;;;;;5206133;28;20049;-38
2022/02/21 08:48:47;;;;;;;3.55;1.33;;;5.50;99.90;;;;;;5210242;28;20426;-38
2022/02/21 08:51:21;;;;;;;3.65;1.48;;;5.50;99.90;;;;;;5206108;28;20041;-38
2022/02/21 08:53:53;;;;;;;6.07;1.60;;;5.50;99.70;;;;;;5197857;28;20044;-38
2022/02/21 08:56:26;;;;;;;5.75;1.30;;;5.50;99.80;;;;;;5207565;28;20037;-38
2022/02/21 08:58:58;;;;;;;4.63;1.42;;;5.30;99.30;;;;;;5209090;22;20045;-82
2022/02/21 09:01:31;;;;;;;2.75;1.33;;;5.50;99.20;;;;;;5176533;28;20049;-82
2022/02/21 09:04:04;;;;;;;1.85;1.40;;;5.60;99.70;;;;;;5192617;28;20072;-82
2022/02/21 09:06:37;;;;;;;;;;;5.60;99.50;;;;;;5191969;28;20053;-83
2022/02/21 09:09:10;;;;;;;3.30;1.20;;;5.50;99.90;;;;;;5187689;28;19925;-83
2022/02/21 09:11:42;;;;;;;3.80;1.20;;;5.60;99.70;;;;;;5178838;28;20509;-83
2022/02/21 09:14:15;;;;;;;3.88;1.50;;;5.60;99.10;;;;;;5187561;28;20042;-83
2022/02/21 09:16:48;;;;;;;3.00;1.30;;;;;;;;;;5156702;28;20452;-83
2022/02/21 09:19:20;;;;;;;3.73;1.57;;;6.00;99.10;;;;;;5187076;28;20042;-82
2022/02/21 09:21:53;;;;;;;3.20;1.00;;;5.70;99.30;;;;;;5193134;28;20041;-82
2022/02/21 09:24:26;;;;;;;3.42;1.30;;;;;;;;;;5204321;28;20050;-83
2022/02/21 09:26:59;;;;;;;2.97;1.17;;;;;;;;;;5201289;28;20049;-84
2022/02/21 09:29:32;;;;;;;2.38;1.33;;;5.80;96.40;;;;;;5194949;28;20077;-84
2022/02/21 09:32:04;;;;;;;2.03;1.10;;;5.80;97.00;;;;;;5194049;28;20058;-84
2022/02/21 09:34:39;;;;;;;2.73;1.30;;;5.90;97.00;;;;;;5181649;28;20945;-82
2022/02/21 09:37:11;;;;;;;2.95;1.63;;;8.10;97.10;;;;;;5209485;28;20041;-82
2022/02/21 09:39:44;;;;;;;4.50;1.50;;;5.90;96.50;;;;;;5208975;28;20041;-82
2022/02/21 09:42:17;;;;;;;4.22;1.30;;;;;;;;;;5197554;28;20071;-85
2022/02/21 09:44:50;;;;;;;4.65;1.23;;;6.00;95.50;;;;;;5194246;28;20053;-81
2022/02/21 09:47:23;;;;;;;1.77;1.20;;;;;;;;;;5185588;28;20061;-83
2022/02/21 09:49:56;;;;;;;4.72;1.35;;;;;;;;;;5186887;28;20053;-83
2022/02/21 09:52:29;;;;;;;4.82;1.45;;;6.10;93.90;;;;;;5170404;28;20374;-83
2022/02/21 09:55:02;;;;;;;3.22;1.30;;;6.10;94.20;;;;;;5187246;28;20049;-84
2022/02/21 09:57:42;;;;;;;3.88;1.50;;;;;;;;;;5160732;28;20061;-83
2022/02/21 10:00:15;;;;;;;2.50;1.30;;;;;;;;;;5189706;28;20041;-82
2022/02/21 10:02:50;;;;;;;4.50;1.50;;;6.10;93.00;;;;;;5188981;28;20057;-84
2022/02/21 10:05:26;;;;;;;7.35;1.88;;;6.10;93.20;;;;;;5175459;28;20052;-83
2022/02/21 10:08:02;;;;;;;6.85;1.50;;;3.70;92.60;;;;;;5140881;28;20050;-82
2022/02/21 10:10:39;;;;;;;6.75;1.60;;;6.50;92.40;;;;;;5189327;28;20061;-83
2022/02/21 10:13:11;;;;;;;4.38;1.45;;;7.50;92.40;;;;;;5187600;28;20068;-83
2022/02/21 10:15:44;;;;;;;6.22;1.50;;;6.20;91.70;;;;;;5190678;28;20053;-82
2022/02/21 10:18:21;;;;;;;5.90;1.60;;;6.40;90.60;;;;;;5189630;28;20046;-83
2022/02/21 10:20:57;;;;;;;5.05;1.95;;;8.10;91.20;;;;;;5187318;28;20041;-80
2022/02/21 10:23:34;;;;;;;11.25;1.40;;;5.60;90.10;;;;;;5144445;28;20053;-83
2022/02/21 10:26:07;;;;;;;7.13;1.60;;;6.70;90.00;;;;;;5168614;28;20037;-82
2022/02/21 10:28:42;;;;;;;7.47;2.40;;;6.90;89.00;;;;;;5185945;28;20045;-83
2022/02/21 10:31:23;;;;;;;3.40;1.20;;;7.00;88.80;;;;;;5184670;28;20061;-81
2022/02/21 10:34:01;;;;;;;4.68;1.48;;;7.50;88.10;;;;;;5188613;28;20886;-82
2022/02/21 10:36:40;;;;;;;5.28;1.40;;;7.10;86.10;;;;;;5163453;28;20045;-82
2022/02/21 10:39:19;;;;;;;5.43;1.42;;;8.30;87.10;;;;;;5141996;28;20064;-82
2022/02/21 10:41:54;;;;;;;3.58;1.63;;;7.50;84.40;;;;;;5192630;28;20508;-83
2022/02/21 10:44:32;;;;;;;3.90;1.35;;;8.30;85.10;;;;;;5169582;28;20065;-81
2022/02/21 10:47:08;;;;;;;10.15;1.25;;;7.60;84.00;;;;;;5188748;28;20510;-84
2022/02/21 10:50:03;;;;;;;3.83;1.05;;;7.60;84.50;;;;;;5170817;28;20416;-82
2022/02/21 10:52:39;;;;;;;3.67;1.23;;;7.60;83.70;;;;;;5187495;28;20045;-84
2022/02/21 10:55:13;;;;;;;1.67;1.30;;;7.60;83.80;;;;;;5188400;28;20287;-81
2022/02/21 10:57:47;;;;;;;3.83;1.30;;;8.90;83.70;;;;;;5170105;28;20052;-82
2022/02/21 11:00:23;;;;;;;4.60;1.35;;;;;;;;;;5186615;28;20046;-82
2022/02/21 11:02:56;;;;;;;10.45;1.33;;;7.70;81.70;;;;;;5187578;28;20460;-84
2022/02/21 11:05:32;;;;;;;5.40;1.30;;;;;;;;;;5173496;28;20049;-84
2022/02/21 11:08:06;;;;;;;8.95;1.45;;;7.70;81.40;;;;;;5172084;28;20058;-83
2022/02/21 11:10:42;;;;;;;4.28;1.80;;;7.60;81.40;;;;;;5185396;28;20053;-81
2022/02/21 11:13:16;;;;;;;6.47;1.50;;;7.50;82.60;;;;;;5170947;28;20057;-83
2022/02/21 11:15:49;;;;;;;1.55;1.05;;;7.40;82.60;;;;;;5189755;28;20390;-81
2022/02/21 11:18:23;;;;;;;7.00;1.53;;;7.20;83.40;;;;;;5194638;28;20045;-83
2022/02/21 11:20:56;;;;;;;3.80;1.60;;;;;;;;;;5191033;28;20853;-81
2022/02/21 11:23:32;;;;;;;2.75;1.10;;;7.10;84.40;;;;;;5172817;28;20528;-80
2022/02/21 11:26:22;;;;;;;3.28;1.33;;;7.10;85.00;;;;;;5182694;28;20085;-82
2022/02/21 11:28:58;;;;;;;5.13;1.63;;;6.90;85.10;;;;;;5179185;28;20077;-81
2022/02/21 11:31:38;;;;;;;3.15;1.40;;;7.00;86.60;;;;;;5172762;28;20038;-81
2022/02/21 11:34:10;;;;;;;4.38;1.52;;;5.60;85.80;;;;;;5169934;28;20041;-80
2022/02/21 11:36:47;;;;;;;2.30;1.15;;;7.30;86.40;;;;;;5170410;28;20046;-81
2022/02/21 11:39:32;;;;;;;6.07;1.52;;;7.60;86.80;;;;;;5161468;28;20049;-81
2022/02/21 11:42:33;;;;;;;5.25;2.15;;;5.60;85.10;;;;;;5185268;28;20390;-81
2022/02/21 11:45:24;;;;;;;5.47;1.63;;;7.00;84.90;;;;;;5184019;28;20052;-82
2022/02/21 11:48:00;;;;;;;3.65;1.63;;;7.00;84.60;;;;;;5169570;28;20861;-82
2022/02/21 11:50:32;;;;;;;6.22;1.55;;;7.40;85.10;;;;;;5184446;28;20054;-82
2022/02/21 11:53:23;;;;;;;4.97;1.65;;;7.00;85.00;;;;;;5170553;28;20045;-83
2022/02/21 11:55:57;;;;;;;6.53;1.58;;;4.70;84.50;;;;;;5185056;28;20029;-82
2022/02/21 11:58:29;;;;;;;3.75;1.35;;;;;;;;;;5185641;28;20058;-82
2022/02/21 12:01:10;;;;;;;5.22;1.38;;;7.40;83.60;;;;;;5187513;28;20518;-81
2022/02/21 12:03:42;;;;;;;4.25;1.60;;;7.80;82.50;;;;;;5188027;28;20065;-82
2022/02/21 12:06:17;;;;;;;8.35;1.63;;;5.90;82.00;;;;;;5152768;28;20053;-82
2022/02/21 12:09:08;;;;;;;4.73;1.37;;;8.80;82.90;;;;;;5183434;28;20045;-83
2022/02/21 12:11:41;;;;;;;6.30;1.63;;;7.90;82.30;;;;;;5186313;28;20528;-81
2022/02/21 12:14:16;;;;;;;8.73;1.80;;;5.60;78.90;;;;;;5188885;28;20056;-83
2022/02/21 12:16:57;;;;;;;7.35;2.03;;;7.50;80.00;;;;;;5188291;28;20057;-82
2022/02/21 12:19:32;;;;;;;8.13;1.52;;;5.80;79.30;;;;;;5174260;28;20060;-81
2022/02/21 12:22:14;;;;;;;11.98;1.73;;;7.60;80.20;;;;;;5187729;28;20046;-81
2022/02/21 12:25:05;;;;;;;7.57;1.30;;;7.60;79.00;;;;;;5192619;28;20037;-81
2022/02/21 12:28:11;;;;;;;7.55;1.58;;;7.50;78.60;;;;;;5172478;28;20045;-82
2022/02/21 12:30:49;;;;;;;10.75;1.60;;;7.40;79.60;;;;;;5179899;28;20397;-81
2022/02/21 12:33:32;;;;;;;6.13;1.30;;;7.30;80.00;;;;;;5189357;28;20049;-80
2022/02/21 12:36:07;;;;;;;10.70;1.27;;;7.40;79.70;;;;;;5188198;28;20052;-81
2022/02/21 12:38:40;;;;;;;5.07;1.40;;;8.30;80.20;;;;;;5170738;28;20045;-81
2022/02/21 12:41:13;;;;;;;8.02;1.38;;;;;;;;;;5167603;28;20053;-82
2022/02/21 12:44:03;;;;;;;6.03;1.92;;;7.40;79.70;;;;;;5165503;28;20048;-82
2022/02/21 12:46:46;;;;;;;5.65;1.23;;;7.20;77.90;;;;;;5170584;28;20049;-81
2022/02/21 12:49:24;;;;;;;8.15;1.73;;;7.30;77.90;;;;;;5144667;28;20703;-82
2022/02/21 12:52:06;;;;;;;8.38;1.70;;;8.50;80.70;;;;;;5140538;28;20136;-81
2022/02/21 12:54:48;;;;;;;6.85;1.77;;;7.30;79.50;;;;;;5191473;28;20049;-83
2022/02/21 12:57:26;;;;;;;5.68;1.30;;;7.30;80.40;;;;;;5188075;28;20038;-81
2022/02/21 12:59:58;;;;;;;7.95;1.55;;;8.20;81.10;;;;;;5192803;28;20183;-81
2022/02/21 13:02:31;;;;;;;6.28;1.48;;;8.60;81.50;;;;;;5173311;28;20044;-81
2022/02/21 13:05:11;;;;;;;6.20;2.20;;;7.20;81.00;;;;;;5189699;28;20053;-82
2022/02/21 13:07:43;;;;;;;7.32;1.20;;;7.40;83.60;;;;;;5186888;28;20129;-83
2022/02/21 13:10:16;;;;;;;8.27;1.55;;;;;;;;;;5172197;28;20045;-82
2022/02/21 13:12:50;;;;;;;6.90;2.15;;;7.10;81.50;;;;;;5206614;28;20050;-82
2022/02/21 13:15:22;;;;;;;9.90;1.85;;;10.10;84.60;;;;;;5194753;28;20045;-82
2022/02/21 13:17:58;;;;;;;8.68;2.42;;;5.20;82.90;;;;;;5157176;28;20744;-85
2022/02/21 13:20:43;;;;;;;4.47;1.60;;;7.10;83.90;;;;;;5190329;28;20045;-84
2022/02/21 13:23:15;;;;;;;3.63;1.48;;;7.80;83.40;;;;;;5156457;28;20049;-83
2022/02/21 13:25:48;;;;;;;9.13;1.30;;;7.20;83.10;;;;;;5187574;28;20052;-82
2022/02/21 13:28:21;;;;;;;3.95;1.52;;;8.60;83.80;;;;;;5155589;28;20053;-82
2022/02/21 13:31:10;;;;;;;8.23;1.60;;;7.20;83.10;;;;;;5172031;28;20049;-82
2022/02/21 13:33:51;;;;;;;6.57;1.50;;;7.10;82.20;;;;;;5190775;28;20068;-83
2022/02/21 13:36:25;;;;;;;4.47;1.63;;;7.20;82.40;;;;;;5143070;28;20038;-82